Time;durP1;ratioP1;P1;durP2;ratioP2;P2;SDS_P1;SDS_P2;PMS_P1;PMS_P2;Temp;Humidity;BMP_temperature;BMP_pressure;BME280_temperature;BME280_humidity;BME280_pressure;Samples;Min_cycle;Max_cycle;Signal;HPM_P1;HPM_P2
2022/12/26 00:02:14;;;;;;;53.05;18.15;;;8.80;99.90;;;;;;5035975;28;20036;-72
2022/12/26 00:04:40;;;;;;;47.17;18.67;;;8.40;99.90;;;;;;5033011;28;20428;-72
2022/12/26 00:07:05;;;;;;;44.88;17.55;;;8.40;99.90;;;;;;5033079;28;20040;-72
2022/12/26 00:09:32;;;;;;;45.25;18.20;;;8.40;99.90;;;;;;5017263;28;20090;-72
2022/12/26 00:11:58;;;;;;;42.63;16.90;;;8.70;99.90;;;;;;5047918;28;20395;-72
2022/12/26 00:14:23;;;;;;;44.00;18.00;;;8.40;99.90;;;;;;5055697;28;20079;-72
2022/12/26 00:16:49;;;;;;;50.55;18.77;;;8.40;99.90;;;;;;5041351;28;20201;-72
2022/12/26 00:19:15;;;;;;;52.67;18.08;;;8.80;99.90;;;;;;5055225;28;20127;-72
2022/12/26 00:21:41;;;;;;;56.90;17.85;;;8.70;99.90;;;;;;5038442;28;20050;-72
2022/12/26 00:24:10;;;;;;;52.42;17.95;;;8.40;99.90;;;;;;5076008;28;20122;-72
2022/12/26 00:26:37;;;;;;;47.65;17.10;;;8.40;99.90;;;;;;5060515;28;20128;-72
2022/12/26 00:29:03;;;;;;;51.17;17.92;;;8.40;99.90;;;;;;5053142;28;20040;-72
2022/12/26 00:31:31;;;;;;;53.20;17.88;;;8.40;99.90;;;;;;5055799;28;20597;-72
2022/12/26 00:33:58;;;;;;;60.72;19.27;;;8.60;99.90;;;;;;5071436;28;20040;-72
2022/12/26 00:36:27;;;;;;;52.10;17.88;;;8.50;99.90;;;;;;5075758;28;20151;-72
2022/12/26 00:38:54;;;;;;;63.70;19.13;;;8.50;99.90;;;;;;5073795;28;20044;-72
2022/12/26 00:41:20;;;;;;;54.50;17.88;;;8.40;99.90;;;;;;5057769;28;20048;-72
2022/12/26 00:43:46;;;;;;;51.08;18.48;;;8.50;99.90;;;;;;5053404;28;20505;-73
2022/12/26 00:46:12;;;;;;;58.00;18.25;;;8.40;99.90;;;;;;5070598;28;20071;-72
2022/12/26 00:48:38;;;;;;;56.80;18.98;;;8.40;99.90;;;;;;5040132;28;20039;-71
2022/12/26 00:51:04;;;;;;;58.45;18.45;;;8.70;99.90;;;;;;5057969;28;20109;-71
2022/12/26 00:53:30;;;;;;;52.55;18.40;;;8.40;99.90;;;;;;5040566;28;20101;-72
2022/12/26 00:55:56;;;;;;;61.83;18.77;;;8.40;99.90;;;;;;5072488;28;20044;-72
2022/12/26 00:58:22;;;;;;;54.08;18.98;;;8.40;99.90;;;;;;5054649;28;20040;-72
2022/12/26 01:00:49;;;;;;;54.47;18.52;;;8.40;99.90;;;;;;5053341;28;20044;-72
2022/12/26 01:03:15;;;;;;;52.55;18.58;;;8.40;99.90;;;;;;5058679;28;20113;-72
2022/12/26 01:05:47;;;;;;;52.55;18.27;;;8.40;99.90;;;;;;5056912;28;20045;-72
2022/12/26 01:08:12;;;;;;;;;;;8.40;99.90;;;;;;5070851;28;20135;-72
2022/12/26 01:10:44;;;;;;;61.08;19.27;;;8.40;99.90;;;;;;5055253;28;20005;-72
2022/12/26 01:13:10;;;;;;;76.43;19.02;;;8.40;99.90;;;;;;5069282;28;20047;-71
2022/12/26 01:15:36;;;;;;;56.67;19.05;;;8.40;99.90;;;;;;5052244;28;20141;-71
2022/12/26 01:18:02;;;;;;;66.65;19.13;;;8.40;99.90;;;;;;5073216;28;20082;-71
2022/12/26 01:20:28;;;;;;;56.20;19.10;;;8.40;99.90;;;;;;5072665;28;20730;-71
2022/12/26 01:22:54;;;;;;;58.97;18.40;;;8.40;99.90;;;;;;5072388;28;20052;-71
2022/12/26 01:25:21;;;;;;;50.08;17.52;;;8.40;99.90;;;;;;5055597;28;20924;-71
2022/12/26 01:27:47;;;;;;;60.20;18.55;;;8.40;99.90;;;;;;5037865;28;20118;-71
2022/12/26 01:30:13;;;;;;;54.55;19.05;;;8.40;99.90;;;;;;5068098;28;20131;-71
2022/12/26 01:32:39;;;;;;;58.47;19.20;;;8.40;99.90;;;;;;5074287;28;20044;-71
2022/12/26 01:35:05;;;;;;;56.33;18.65;;;8.40;99.90;;;;;;5039417;28;20040;-71
2022/12/26 01:37:30;;;;;;;50.20;18.15;;;8.40;99.90;;;;;;5072311;28;20123;-71
2022/12/26 01:39:59;;;;;;;58.95;18.83;;;8.40;99.90;;;;;;5074642;28;20147;-72
2022/12/26 01:42:34;;;;;;;56.25;18.83;;;8.30;99.90;;;;;;5059027;28;20067;-72
2022/12/26 01:45:20;;;;;;;56.72;18.80;;;8.30;99.90;;;;;;5032190;28;20099;-72
2022/12/26 01:47:47;;;;;;;55.15;17.85;;;8.30;99.90;;;;;;5077733;28;20087;-72
2022/12/26 01:50:34;;;;;;;47.03;17.45;;;8.40;99.90;;;;;;5075010;28;20039;-72
2022/12/26 01:53:14;;;;;;;53.83;19.13;;;8.30;99.90;;;;;;5056794;28;20052;-72
2022/12/26 01:55:42;;;;;;;55.80;17.88;;;8.40;99.90;;;;;;5052311;28;20361;-72
2022/12/26 01:58:14;;;;;;;51.25;18.02;;;8.30;99.90;;;;;;5054224;28;20036;-72
2022/12/26 02:00:40;;;;;;;58.88;18.08;;;8.30;99.90;;;;;;5079326;28;20545;-72
2022/12/26 02:05:55;;;;;;;45.97;17.25;;;8.30;99.90;;;;;;5060811;28;21730;-72
2022/12/26 02:08:27;;;;;;;54.00;16.67;;;8.30;99.90;;;;;;5078133;28;20040;-72
2022/12/26 02:11:05;;;;;;;49.97;16.20;;;8.30;99.90;;;;;;5051392;28;20492;-71
2022/12/26 02:13:34;;;;;;;54.40;16.08;;;8.40;99.90;;;;;;5037804;28;20781;-71
2022/12/26 02:16:02;;;;;;;47.58;15.15;;;8.40;99.90;;;;;;5074605;28;20047;-72
2022/12/26 02:18:28;;;;;;;50.90;15.35;;;8.40;99.90;;;;;;5061507;28;20052;-71
2022/12/26 02:20:59;;;;;;;46.33;15.60;;;8.30;99.90;;;;;;5044080;28;20059;-72
2022/12/26 02:23:36;;;;;;;44.75;14.68;;;8.40;99.90;;;;;;5054367;28;20466;-72
2022/12/26 02:26:20;;;;;;;43.88;14.40;;;8.40;99.90;;;;;;5069834;28;20051;-72
2022/12/26 02:29:01;;;;;;;39.35;13.68;;;8.40;99.90;;;;;;5062225;28;20048;-71
2022/12/26 02:31:57;;;;;;;45.88;14.57;;;8.40;99.90;;;;;;5076943;28;20151;-71
2022/12/26 02:34:43;;;;;;;36.75;13.95;;;8.40;99.90;;;;;;5056878;28;20067;-71
2022/12/26 02:37:21;;;;;;;37.83;13.77;;;8.40;99.90;;;;;;5055670;28;20036;-71
2022/12/26 02:40:12;;;;;;;34.42;12.63;;;8.40;99.90;;;;;;5075696;28;20040;-71
2022/12/26 02:43:10;;;;;;;33.33;12.67;;;8.40;99.90;;;;;;5038091;28;20166;-71
2022/12/26 02:49:07;;;;;;;31.67;12.45;;;8.40;99.90;;;;;;5060854;28;20040;-71
2022/12/26 03:15:07;;;;;;;41.70;19.30;;;8.50;99.90;;;;;;5037287;28;20044;-74
2022/12/26 03:17:40;;;;;;;39.15;19.85;;;8.50;99.90;;;;;;5040520;28;20052;-74
2022/12/26 03:20:23;;;;;;;42.80;22.05;;;8.50;99.90;;;;;;5033626;28;20257;-74
2022/12/26 03:22:56;;;;;;;45.78;21.75;;;8.50;99.90;;;;;;5024898;28;20053;-75
2022/12/26 03:28:35;;;;;;;44.92;21.70;;;8.50;99.90;;;;;;5054842;28;20040;-73
2022/12/26 03:31:06;;;;;;;46.75;23.83;;;8.50;99.90;;;;;;5053039;28;20102;-75
2022/12/26 03:36:45;;;;;;;49.53;23.83;;;8.50;99.90;;;;;;5034997;28;20135;-74
2022/12/26 04:44:52;;;;;;;47.25;23.55;;;8.70;99.90;;;;;;5054623;28;20404;-75
2022/12/26 04:47:21;;;;;;;49.40;23.35;;;8.70;99.90;;;;;;5068282;28;20079;-75
2022/12/26 04:55:17;;;;;;;46.78;23.35;;;8.70;99.90;;;;;;5056923;28;20059;-74
2022/12/26 04:57:43;;;;;;;48.88;24.45;;;8.70;99.90;;;;;;5071524;28;20036;-75
2022/12/26 05:00:09;;;;;;;53.85;24.00;;;8.70;99.90;;;;;;5050782;28;20066;-74
2022/12/26 05:10:48;;;;;;;46.60;22.15;;;8.60;99.90;;;;;;5074747;28;20078;-75
2022/12/26 05:13:14;;;;;;;45.22;21.58;;;8.60;99.90;;;;;;5046730;28;20060;-74
2022/12/26 05:29:26;;;;;;;41.42;22.08;;;8.60;99.90;;;;;;5072911;28;20048;-74
2022/12/26 05:31:52;;;;;;;42.90;22.98;;;8.60;99.90;;;;;;5059032;28;20067;-72
2022/12/26 05:34:20;;;;;;;39.97;22.40;;;8.90;99.90;;;;;;5057626;28;20913;-74
2022/12/26 05:36:50;;;;;;;42.58;22.77;;;8.60;99.90;;;;;;5057326;28;20068;-73
2022/12/26 05:39:16;;;;;;;46.50;24.08;;;8.60;99.90;;;;;;5060199;28;20052;-73
2022/12/26 05:41:42;;;;;;;46.50;22.80;;;8.50;99.90;;;;;;5063088;28;20752;-73
2022/12/26 05:44:08;;;;;;;43.55;23.30;;;8.50;99.90;;;;;;5056811;28;20048;-73
2022/12/26 05:46:35;;;;;;;39.63;23.50;;;8.50;99.90;;;;;;5062096;28;20151;-74
2022/12/26 05:49:01;;;;;;;43.92;23.60;;;8.60;99.90;;;;;;5050764;28;20043;-73
2022/12/26 05:51:27;;;;;;;42.47;23.88;;;8.50;99.90;;;;;;5054626;28;20059;-74
2022/12/26 05:53:53;;;;;;;42.20;23.58;;;8.50;99.90;;;;;;5062082;28;20036;-74
2022/12/26 05:56:19;;;;;;;44.60;22.92;;;8.50;99.90;;;;;;5055951;28;20083;-74
2022/12/26 05:58:45;;;;;;;40.92;22.98;;;8.50;99.90;;;;;;5060593;28;20044;-74
2022/12/26 06:01:12;;;;;;;40.60;23.30;;;8.50;99.90;;;;;;5074805;28;20078;-74
2022/12/26 06:03:42;;;;;;;38.97;23.05;;;8.50;99.90;;;;;;5038632;28;20051;-74
2022/12/26 06:06:09;;;;;;;43.92;25.23;;;8.50;99.90;;;;;;5058670;28;20051;-73
2022/12/26 06:08:35;;;;;;;38.65;23.33;;;8.50;99.90;;;;;;5059412;28;20059;-73
2022/12/26 06:11:10;;;;;;;38.67;23.23;;;8.50;99.90;;;;;;5074177;28;20500;-73
2022/12/26 06:13:36;;;;;;;38.70;22.92;;;8.50;99.90;;;;;;5042864;28;20458;-74
2022/12/26 06:16:07;;;;;;;45.63;24.45;;;8.50;99.90;;;;;;5054700;28;20052;-73
2022/12/26 06:18:33;;;;;;;37.38;22.95;;;8.50;99.90;;;;;;5060577;28;20051;-72
2022/12/26 06:21:04;;;;;;;35.83;23.05;;;8.50;99.90;;;;;;5074477;28;20086;-73
2022/12/26 06:23:29;;;;;;;38.60;22.98;;;8.50;99.90;;;;;;5071595;28;20037;-74
2022/12/26 06:25:56;;;;;;;34.20;22.08;;;8.50;99.90;;;;;;5074971;28;20078;-73
2022/12/26 06:28:23;;;;;;;36.63;22.20;;;8.50;99.90;;;;;;5078490;28;20032;-73
2022/12/26 06:30:52;;;;;;;38.22;23.42;;;8.50;99.90;;;;;;5059639;28;20082;-73
2022/12/26 06:33:19;;;;;;;35.88;22.33;;;8.50;99.90;;;;;;5045679;28;20054;-73
2022/12/26 06:35:44;;;;;;;37.63;21.88;;;8.50;99.90;;;;;;5079215;28;20044;-75
2022/12/26 06:38:10;;;;;;;34.65;20.58;;;8.50;99.90;;;;;;5056901;28;20470;-74
2022/12/26 06:40:40;;;;;;;33.22;21.48;;;8.50;99.90;;;;;;5037556;28;20043;-73
2022/12/26 06:43:07;;;;;;;30.27;20.92;;;8.50;99.90;;;;;;5059208;28;20101;-73
2022/12/26 06:45:33;;;;;;;30.17;20.05;;;8.50;99.90;;;;;;5039079;28;20048;-73
2022/12/26 06:48:02;;;;;;;33.45;20.60;;;8.50;99.90;;;;;;5056912;28;20036;-72
2022/12/26 06:50:27;;;;;;;34.85;20.23;;;8.50;99.90;;;;;;5062154;28;20401;-73
2022/12/26 06:52:53;;;;;;;31.20;18.73;;;8.50;99.90;;;;;;5053736;28;20045;-73
2022/12/26 06:55:19;;;;;;;27.25;17.73;;;8.60;99.90;;;;;;5055502;28;20047;-73
2022/12/26 06:57:45;;;;;;;28.50;18.00;;;8.50;99.90;;;;;;5051651;28;20083;-73
2022/12/26 07:00:11;;;;;;;31.00;18.55;;;8.60;99.90;;;;;;5045856;28;20041;-73
2022/12/26 07:02:37;;;;;;;25.80;17.08;;;8.50;99.90;;;;;;5052879;28;20035;-73
2022/12/26 07:05:03;;;;;;;30.42;17.00;;;8.70;99.90;;;;;;5039805;28;20036;-76
2022/12/26 07:07:28;;;;;;;26.33;16.83;;;8.60;99.90;;;;;;5052835;28;20041;-73
2022/12/26 07:09:55;;;;;;;24.27;16.67;;;8.60;99.90;;;;;;5063535;28;20048;-73
2022/12/26 07:12:21;;;;;;;25.05;14.95;;;8.60;99.90;;;;;;5073648;28;20048;-73
2022/12/26 07:14:47;;;;;;;26.08;15.25;;;8.60;99.90;;;;;;5055963;28;20127;-72
2022/12/26 07:17:13;;;;;;;26.25;14.18;;;8.60;99.90;;;;;;5050884;28;20139;-73
2022/12/26 07:19:39;;;;;;;25.02;13.40;;;8.60;99.90;;;;;;5053136;28;20045;-72
2022/12/26 07:22:04;;;;;;;19.23;11.52;;;8.60;99.90;;;;;;5060780;28;20037;-73
2022/12/26 07:24:30;;;;;;;23.45;11.50;;;8.60;99.90;;;;;;5062032;28;20040;-73
2022/12/26 07:26:56;;;;;;;19.90;10.48;;;8.60;99.90;;;;;;5058233;28;20040;-74
2022/12/26 07:29:22;;;;;;;20.98;9.38;;;8.70;99.90;;;;;;5053540;28;20040;-74
2022/12/26 07:31:47;;;;;;;19.25;9.63;;;8.60;99.90;;;;;;5052896;28;20117;-77
2022/12/26 07:34:14;;;;;;;21.98;9.25;;;8.60;99.90;;;;;;5050243;28;20047;-73
2022/12/26 07:36:40;;;;;;;18.30;9.40;;;8.60;99.90;;;;;;5055008;28;20040;-73
2022/12/26 07:39:06;;;;;;;20.00;8.98;;;8.70;99.90;;;;;;5069712;28;20105;-74
2022/12/26 07:44:16;;;;;;;16.55;8.60;;;8.60;99.90;;;;;;5069163;28;20036;-73
2022/12/26 07:46:45;;;;;;;22.08;8.73;;;8.70;99.90;;;;;;5035028;28;21729;-74
2022/12/26 07:49:11;;;;;;;18.35;8.38;;;8.50;99.90;;;;;;5050420;28;20047;-74
2022/12/26 07:51:37;;;;;;;16.63;8.82;;;8.50;99.90;;;;;;5050646;28;20044;-72
2022/12/26 07:54:03;;;;;;;20.38;8.88;;;8.50;99.90;;;;;;5037032;28;20043;-71
2022/12/26 07:56:31;;;;;;;16.70;8.60;;;8.50;99.90;;;;;;5037501;28;20052;-71
2022/12/26 07:58:57;;;;;;;16.40;8.77;;;8.50;99.90;;;;;;5047874;28;20186;-71
2022/12/26 08:01:23;;;;;;;16.20;8.15;;;8.50;99.90;;;;;;5055277;28;20040;-72
2022/12/26 08:03:49;;;;;;;15.73;8.48;;;8.50;99.90;;;;;;5054778;28;20055;-73
2022/12/26 08:06:18;;;;;;;18.95;7.68;;;8.60;99.90;;;;;;5074631;28;20131;-72
2022/12/26 08:08:46;;;;;;;19.65;8.35;;;8.50;99.90;;;;;;5052840;28;20058;-73
2022/12/26 08:11:15;;;;;;;15.25;7.65;;;8.60;99.90;;;;;;5075694;28;20560;-73
2022/12/26 08:13:41;;;;;;;17.85;7.45;;;8.60;99.90;;;;;;5051862;28;20054;-72
2022/12/26 08:16:08;;;;;;;17.27;8.65;;;8.60;99.90;;;;;;5077971;28;20047;-72
2022/12/26 08:18:34;;;;;;;21.38;8.63;;;8.60;99.90;;;;;;5057716;28;20050;-73
2022/12/26 08:21:00;;;;;;;19.60;8.20;;;8.60;99.90;;;;;;5055581;28;20040;-73
2022/12/26 08:23:26;;;;;;;17.15;7.90;;;8.60;99.90;;;;;;5056749;28;20040;-72
2022/12/26 08:25:51;;;;;;;15.10;7.50;;;8.60;99.90;;;;;;5059799;28;20501;-73
2022/12/26 08:28:17;;;;;;;19.77;8.13;;;8.60;99.90;;;;;;5077437;28;20437;-73
2022/12/26 08:30:43;;;;;;;15.90;7.65;;;8.70;99.90;;;;;;5077744;28;20124;-73
2022/12/26 08:33:10;;;;;;;15.93;7.57;;;8.60;99.90;;;;;;5062112;28;20067;-73
2022/12/26 08:35:37;;;;;;;15.38;6.75;;;8.70;99.90;;;;;;5059330;28;20571;-74
2022/12/26 08:38:03;;;;;;;18.42;7.68;;;8.70;99.90;;;;;;5071998;28;20101;-72
2022/12/26 08:40:29;;;;;;;15.52;6.43;;;8.70;99.90;;;;;;5055293;28;20036;-72
2022/12/26 08:42:55;;;;;;;13.88;6.07;;;8.70;99.90;;;;;;5054578;28;20050;-73
2022/12/26 08:45:21;;;;;;;13.32;6.68;;;8.70;99.90;;;;;;5034006;28;20127;-73
2022/12/26 08:47:47;;;;;;;12.75;7.00;;;8.70;99.90;;;;;;5051838;28;20951;-73
2022/12/26 08:50:13;;;;;;;14.95;7.22;;;8.70;99.90;;;;;;5073642;28;20529;-73
2022/12/26 08:52:38;;;;;;;17.38;7.65;;;8.70;99.90;;;;;;5070167;28;20129;-73
2022/12/26 08:55:04;;;;;;;15.55;7.30;;;8.70;99.90;;;;;;5057139;28;20561;-72
2022/12/26 08:57:30;;;;;;;15.73;6.60;;;8.70;99.90;;;;;;5037369;28;20136;-72
2022/12/26 08:59:56;;;;;;;15.20;7.47;;;8.70;99.90;;;;;;5056998;28;20580;-74
2022/12/26 09:02:21;;;;;;;13.68;7.93;;;8.70;99.90;;;;;;5058519;28;20051;-72
2022/12/26 09:04:47;;;;;;;20.27;8.02;;;8.70;99.90;;;;;;5042661;28;20076;-72
2022/12/26 09:07:13;;;;;;;18.40;7.90;;;8.70;99.90;;;;;;5060600;28;20118;-72
2022/12/26 09:09:38;;;;;;;15.77;7.47;;;8.70;99.90;;;;;;5068562;28;20090;-72
2022/12/26 09:12:04;;;;;;;14.85;7.35;;;8.70;99.90;;;;;;5049047;28;20059;-73
2022/12/26 09:14:30;;;;;;;13.70;8.02;;;8.70;99.90;;;;;;5057782;28;20047;-74
2022/12/26 09:16:56;;;;;;;16.10;7.50;;;8.70;99.90;;;;;;5049594;28;20040;-72
2022/12/26 09:19:22;;;;;;;13.00;7.25;;;8.70;99.90;;;;;;5064235;28;20047;-73
2022/12/26 09:22:49;;;;;;;13.88;7.20;;;8.70;99.90;;;;;;5067292;28;20120;-73
2022/12/26 09:24:35;;;;;;;15.48;6.38;;;8.80;99.90;;;;;;5067394;28;20716;-74
2022/12/26 09:27:01;;;;;;;16.65;6.72;;;8.80;99.90;;;;;;5049068;28;20048;-74
2022/12/26 09:29:26;;;;;;;16.65;6.68;;;8.70;99.90;;;;;;5039855;28;20043;-75
2022/12/26 09:31:54;;;;;;;14.25;5.97;;;8.70;99.90;;;;;;5053920;28;20798;-74
2022/12/26 09:34:20;;;;;;;14.95;5.45;;;8.80;99.90;;;;;;5045443;28;20484;-73
2022/12/26 09:36:45;;;;;;;16.60;5.32;;;8.70;99.90;;;;;;5068306;28;20075;-73
2022/12/26 09:39:11;;;;;;;20.80;4.93;;;8.70;99.90;;;;;;5052189;28;20264;-73
2022/12/26 09:41:49;;;;;;;16.63;4.63;;;8.80;99.90;;;;;;5047345;28;20775;-76
2022/12/26 09:44:29;;;;;;;26.38;4.25;;;8.70;99.90;;;;;;5032092;28;20573;-74
2022/12/26 09:47:05;;;;;;;18.13;2.95;;;8.60;99.90;;;;;;5029886;28;20063;-75
2022/12/26 09:49:39;;;;;;;16.48;2.60;;;8.40;99.90;;;;;;5046855;28;20032;-74
2022/12/26 09:52:17;;;;;;;17.70;2.47;;;8.30;99.90;;;;;;5065639;28;20040;-72
2022/12/26 09:54:59;;;;;;;17.65;2.45;;;8.20;99.90;;;;;;5050208;28;20630;-75
2022/12/26 09:57:41;;;;;;;16.63;2.83;;;8.00;99.90;;;;;;5075761;28;20040;-75
2022/12/26 10:00:17;;;;;;;15.68;2.55;;;7.90;99.90;;;;;;5058704;28;20031;-78
2022/12/26 10:02:53;;;;;;;11.15;1.65;;;7.80;99.90;;;;;;5073950;28;20067;-74
2022/12/26 10:05:22;;;;;;;20.17;2.58;;;7.70;99.90;;;;;;5056011;28;20048;-75
2022/12/26 10:07:56;;;;;;;18.10;2.53;;;7.60;99.90;;;;;;5045361;28;20562;-74
2022/12/26 10:10:57;;;;;;;16.65;2.22;;;7.60;99.90;;;;;;5072095;28;20048;-75
2022/12/26 10:13:41;;;;;;;8.68;1.88;;;7.50;99.90;;;;;;5025719;28;21165;-73
2022/12/26 10:16:14;;;;;;;16.05;2.50;;;7.50;99.90;;;;;;5035990;28;20711;-74
2022/12/26 10:18:52;;;;;;;17.45;2.38;;;7.50;99.90;;;;;;5069641;28;20588;-73
2022/12/26 10:21:41;;;;;;;18.10;2.47;;;7.40;99.90;;;;;;5039456;28;20044;-73
2022/12/26 10:24:10;;;;;;;17.05;2.33;;;7.40;99.90;;;;;;5067688;28;20044;-74
2022/12/26 10:26:44;;;;;;;12.20;2.03;;;7.60;99.90;;;;;;5064276;28;20638;-74
2022/12/26 10:29:40;;;;;;;17.75;2.00;;;7.40;99.90;;;;;;5055208;28;20044;-76
2022/12/26 10:32:46;;;;;;;18.05;2.35;;;7.40;99.90;;;;;;5050105;28;20048;-73
2022/12/26 10:35:38;;;;;;;14.50;2.10;;;7.40;99.90;;;;;;5047533;28;20075;-74
2022/12/26 10:38:34;;;;;;;18.17;2.08;;;7.40;99.90;;;;;;5058656;28;20078;-72
2022/12/26 10:41:24;;;;;;;12.93;1.70;;;7.40;99.90;;;;;;5072201;28;20048;-74
2022/12/26 10:43:49;;;;;;;11.10;1.83;;;7.40;99.90;;;;;;5056487;28;20063;-73
2022/12/26 10:46:34;;;;;;;13.52;2.20;;;7.80;99.90;;;;;;5040567;28;20044;-74
2022/12/26 10:49:00;;;;;;;14.10;1.80;;;7.40;99.90;;;;;;5067767;28;20097;-74
2022/12/26 10:51:26;;;;;;;12.23;1.40;;;7.40;99.90;;;;;;5068269;28;20049;-75
2022/12/26 10:53:53;;;;;;;16.55;1.67;;;7.30;99.90;;;;;;5051819;28;20044;-73
2022/12/26 10:56:20;;;;;;;10.38;1.58;;;7.20;99.90;;;;;;5055544;28;21040;-74
2022/12/26 10:58:57;;;;;;;12.70;1.75;;;7.20;99.90;;;;;;5050848;28;20487;-73
2022/12/26 11:01:37;;;;;;;10.77;1.40;;;7.10;99.90;;;;;;5040581;28;20114;-72
2022/12/26 11:04:21;;;;;;;11.30;1.77;;;7.10;99.90;;;;;;5030964;28;20417;-74
2022/12/26 11:06:51;;;;;;;16.05;2.10;;;7.10;99.90;;;;;;5052425;28;20052;-75
2022/12/26 11:09:41;;;;;;;13.27;1.65;;;7.00;99.90;;;;;;5032204;28;21272;-74
2022/12/26 11:12:20;;;;;;;15.38;2.05;;;7.00;99.90;;;;;;5048534;28;20764;-74
2022/12/26 11:14:47;;;;;;;13.20;1.70;;;6.90;99.90;;;;;;5047921;28;20048;-72
2022/12/26 11:17:25;;;;;;;11.80;1.20;;;6.90;99.90;;;;;;5073522;28;20438;-73
2022/12/26 11:20:15;;;;;;;9.63;1.80;;;6.90;99.90;;;;;;5056153;28;20048;-75
2022/12/26 11:22:43;;;;;;;14.63;1.60;;;6.80;99.90;;;;;;5068201;28;20044;-74
2022/12/26 11:25:09;;;;;;;9.10;1.33;;;6.90;99.90;;;;;;5069863;28;20139;-75
2022/12/26 11:27:36;;;;;;;10.40;1.30;;;6.90;99.90;;;;;;5057330;28;20051;-73
2022/12/26 11:30:22;;;;;;;13.02;1.55;;;6.80;99.90;;;;;;5048791;28;20040;-72
2022/12/26 11:33:19;;;;;;;15.93;1.90;;;6.80;99.90;;;;;;5046367;28;20040;-73
2022/12/26 11:36:01;;;;;;;14.10;1.98;;;6.80;99.90;;;;;;5058789;28;20048;-74
2022/12/26 11:38:33;;;;;;;18.70;1.90;;;6.80;99.90;;;;;;5034591;28;20051;-73
2022/12/26 11:41:30;;;;;;;10.20;1.98;;;6.90;99.90;;;;;;5051979;28;20119;-74
2022/12/26 11:44:08;;;;;;;12.88;1.73;;;6.80;99.90;;;;;;5052273;28;20044;-73
2022/12/26 11:46:38;;;;;;;14.38;2.22;;;6.80;99.90;;;;;;5050513;28;20044;-74
2022/12/26 11:49:05;;;;;;;14.27;1.88;;;6.80;99.90;;;;;;5046637;28;20051;-72
2022/12/26 11:51:40;;;;;;;13.32;2.00;;;6.80;99.90;;;;;;5052387;28;20118;-73
2022/12/26 11:54:21;;;;;;;13.15;2.10;;;6.80;99.90;;;;;;5051776;28;20040;-73
2022/12/26 11:56:47;;;;;;;19.27;2.73;;;6.80;99.90;;;;;;5068344;28;20127;-73
2022/12/26 11:59:19;;;;;;;15.52;2.22;;;6.80;99.90;;;;;;5053746;28;20562;-73
2022/12/26 12:01:44;;;;;;;18.15;2.88;;;6.80;99.90;;;;;;5057767;28;20051;-73
2022/12/26 12:04:10;;;;;;;19.77;1.95;;;6.80;99.90;;;;;;5058074;28;20039;-75
2022/12/26 12:07:11;;;;;;;11.23;1.98;;;6.80;99.90;;;;;;5053379;28;20540;-74
2022/12/26 12:09:51;;;;;;;14.57;2.15;;;6.80;99.90;;;;;;5042562;28;20052;-73
2022/12/26 12:12:45;;;;;;;11.32;1.88;;;6.80;99.90;;;;;;5042897;28;20066;-73
2022/12/26 12:15:39;;;;;;;11.57;2.00;;;6.80;99.90;;;;;;5045377;28;20060;-73
2022/12/26 12:18:21;;;;;;;16.25;1.98;;;6.80;99.90;;;;;;5033663;28;20044;-73
2022/12/26 12:21:05;;;;;;;;;;;6.80;99.90;;;;;;5035075;28;20039;-73
2022/12/26 12:24:09;;;;;;;13.93;2.20;;;6.80;99.90;;;;;;5047183;28;19928;-73
2022/12/26 12:26:45;;;;;;;18.92;2.13;;;6.80;99.90;;;;;;4971228;28;20095;-74
2022/12/26 12:29:31;;;;;;;13.85;1.90;;;6.80;99.90;;;;;;5035849;28;20051;-73
2022/12/26 12:32:05;;;;;;;14.10;2.13;;;6.70;99.90;;;;;;5054385;28;20044;-73
2022/12/26 12:34:53;;;;;;;17.88;2.53;;;6.70;99.90;;;;;;5036972;28;20044;-74
2022/12/26 12:37:36;;;;;;;15.13;2.17;;;6.70;99.90;;;;;;5050081;28;20052;-72
2022/12/26 12:40:26;;;;;;;14.07;2.35;;;6.70;99.90;;;;;;5030176;28;20048;-72
2022/12/26 12:43:01;;;;;;;16.50;1.98;;;6.70;99.90;;;;;;5050827;28;20051;-72
2022/12/26 12:45:43;;;;;;;19.05;2.33;;;6.70;99.90;;;;;;5068170;28;20036;-72
2022/12/26 12:48:24;;;;;;;16.40;2.38;;;6.70;99.90;;;;;;5056490;28;20052;-72
2022/12/26 12:51:16;;;;;;;16.63;3.17;;;6.70;99.90;;;;;;5047416;28;20066;-72
2022/12/26 12:53:44;;;;;;;14.75;2.63;;;6.70;99.90;;;;;;5055630;28;20130;-71
2022/12/26 12:56:22;;;;;;;19.13;2.10;;;6.70;99.90;;;;;;5043167;28;20382;-71
2022/12/26 12:59:07;;;;;;;11.68;2.00;;;6.70;99.90;;;;;;5046305;28;20052;-72
2022/12/26 13:01:42;;;;;;;15.10;3.00;;;6.70;99.90;;;;;;5053340;28;20044;-72
2022/12/26 13:04:14;;;;;;;13.60;2.17;;;6.70;99.90;;;;;;5041416;28;20575;-71
2022/12/26 13:06:58;;;;;;;14.45;2.40;;;6.70;99.90;;;;;;5051364;28;20763;-72
2022/12/26 13:09:37;;;;;;;15.02;1.70;;;6.70;99.90;;;;;;5051488;28;20136;-71
2022/12/26 13:12:21;;;;;;;23.95;2.20;;;6.70;99.90;;;;;;5040420;28;20516;-71
2022/12/26 13:15:00;;;;;;;13.05;2.05;;;6.70;99.90;;;;;;5028646;28;20048;-73
2022/12/26 13:17:58;;;;;;;15.02;2.08;;;6.70;99.90;;;;;;5054152;28;20051;-72
2022/12/26 13:20:39;;;;;;;17.77;2.47;;;6.70;99.90;;;;;;5045598;28;20064;-72
2022/12/26 13:26:15;;;;;;;19.70;2.35;;;6.60;99.90;;;;;;5062883;28;20056;-73
2022/12/26 13:29:11;;;;;;;14.20;2.80;;;6.60;99.90;;;;;;5037364;28;20823;-72
2022/12/26 13:31:39;;;;;;;12.68;1.65;;;6.60;99.90;;;;;;5071603;28;20036;-72
2022/12/26 13:34:09;;;;;;;15.90;1.77;;;6.60;99.90;;;;;;5066700;28;20181;-72
2022/12/26 13:36:37;;;;;;;12.73;2.38;;;6.60;99.90;;;;;;5046907;28;20047;-72
2022/12/26 13:39:03;;;;;;;15.40;1.75;;;6.50;99.90;;;;;;5042713;28;20062;-72
2022/12/26 13:44:18;;;;;;;11.63;1.60;;;6.50;99.90;;;;;;5048694;28;20585;-72
2022/12/26 13:46:47;;;;;;;16.05;2.63;;;6.50;99.90;;;;;;5050589;28;20056;-72
2022/12/26 13:49:36;;;;;;;18.48;2.38;;;6.50;99.90;;;;;;5052172;28;20505;-71
2022/12/26 13:52:14;;;;;;;22.98;3.05;;;6.50;99.90;;;;;;5035836;28;20040;-71
2022/12/26 13:54:46;;;;;;;14.90;2.05;;;6.50;99.90;;;;;;5049531;28;20590;-71
2022/12/26 13:57:30;;;;;;;11.20;1.90;;;6.60;99.90;;;;;;5053668;28;20064;-71
2022/12/26 14:00:05;;;;;;;11.02;1.77;;;6.50;99.90;;;;;;5052707;28;20075;-71
2022/12/26 14:03:02;;;;;;;19.38;1.73;;;6.50;99.90;;;;;;5045769;28;20563;-71
2022/12/26 14:06:10;;;;;;;17.13;1.95;;;6.00;99.90;;;;;;5047359;28;20040;-72
2022/12/26 14:08:53;;;;;;;20.30;2.25;;;6.40;99.90;;;;;;5043945;28;20709;-71
2022/12/26 14:11:38;;;;;;;20.17;1.95;;;6.40;99.90;;;;;;5048375;28;20053;-72
2022/12/26 14:14:25;;;;;;;15.27;1.88;;;6.40;99.90;;;;;;5066660;28;20582;-72
2022/12/26 14:17:20;;;;;;;19.55;2.90;;;6.40;99.90;;;;;;5045306;28;20637;-72
2022/12/26 14:20:27;;;;;;;10.88;1.98;;;6.40;99.90;;;;;;5065507;28;21780;-72
2022/12/26 14:22:55;;;;;;;14.77;2.90;;;6.30;99.90;;;;;;5013306;28;20051;-72
2022/12/26 14:25:55;;;;;;;19.15;2.42;;;6.30;99.90;;;;;;5074659;28;20052;-72
2022/12/26 14:28:30;;;;;;;10.00;1.67;;;6.30;99.90;;;;;;5042091;28;20132;-72
2022/12/26 14:31:11;;;;;;;12.25;1.95;;;6.30;99.90;;;;;;5068700;28;20040;-73
2022/12/26 14:33:56;;;;;;;13.85;1.73;;;6.20;99.90;;;;;;5055503;28;20048;-73
2022/12/26 14:36:52;;;;;;;14.35;1.85;;;6.20;99.90;;;;;;5055419;28;20135;-71
2022/12/26 14:39:40;;;;;;;24.55;2.38;;;6.20;99.90;;;;;;5059885;28;20135;-72
2022/12/26 14:44:56;;;;;;;13.75;1.98;;;6.20;99.90;;;;;;5080678;28;20051;-72
2022/12/26 14:47:39;;;;;;;18.90;2.88;;;6.20;99.90;;;;;;5056946;28;20477;-71
2022/12/26 14:50:30;;;;;;;12.77;2.00;;;6.10;99.90;;;;;;5052739;28;20055;-72
2022/12/26 14:53:19;;;;;;;19.90;2.22;;;6.10;99.90;;;;;;5042635;28;20048;-72
2022/12/26 14:55:57;;;;;;;18.58;2.28;;;6.10;99.90;;;;;;5050579;28;20315;-72
2022/12/26 14:58:58;;;;;;;20.23;2.75;;;6.10;99.90;;;;;;5072087;28;20044;-72
2022/12/26 15:01:24;;;;;;;15.73;2.50;;;6.00;99.90;;;;;;5014113;28;20921;-72
2022/12/26 15:03:52;;;;;;;16.45;2.65;;;6.00;99.90;;;;;;5021998;28;20060;-73
2022/12/26 15:06:18;;;;;;;21.23;4.78;;;6.00;99.90;;;;;;5044564;28;20097;-73
2022/12/26 15:09:02;;;;;;;19.15;2.67;;;6.00;99.90;;;;;;5041513;28;20059;-73
2022/12/26 15:11:51;;;;;;;17.90;2.60;;;5.90;99.90;;;;;;5074448;28;20170;-72
2022/12/26 15:14:41;;;;;;;16.00;2.70;;;5.90;99.90;;;;;;5026014;28;20056;-72
2022/12/26 15:17:19;;;;;;;13.73;2.13;;;5.80;99.90;;;;;;5052544;28;20050;-73
2022/12/26 15:19:54;;;;;;;14.23;2.88;;;6.40;99.90;;;;;;5046608;28;20118;-72
2022/12/26 15:22:37;;;;;;;12.95;2.28;;;5.80;99.90;;;;;;5047324;28;20128;-71
2022/12/26 15:25:10;;;;;;;19.45;2.30;;;5.80;99.90;;;;;;5032837;28;20040;-72
2022/12/26 15:27:54;;;;;;;16.10;2.15;;;5.70;99.90;;;;;;5046022;28;20482;-72
2022/12/26 15:30:59;;;;;;;15.45;2.47;;;5.70;99.90;;;;;;5064277;28;20036;-72
2022/12/26 15:33:48;;;;;;;18.45;2.78;;;5.70;99.90;;;;;;5015160;28;20074;-72
2022/12/26 15:36:37;;;;;;;13.10;1.92;;;5.90;99.90;;;;;;5043128;28;20055;-72